sensor_id;sensor_type;location;lat;lon;timestamp;temperature;humidity
20459;DHT22;10388;52.314;7.938;2023-03-12T00:00:24;-2.70;99.90
20459;DHT22;10388;52.314;7.938;2023-03-12T00:02:55;-2.70;99.90
20459;DHT22;10388;52.314;7.938;2023-03-12T00:05:25;-2.60;99.90
20459;DHT22;10388;52.314;7.938;2023-03-12T00:07:56;-2.70;99.90
20459;DHT22;10388;52.314;7.938;2023-03-12T00:10:29;-2.70;99.90
20459;DHT22;10388;52.314;7.938;2023-03-12T00:13:00;-2.70;99.90
20459;DHT22;10388;52.314;7.938;2023-03-12T00:15:30;-2.70;99.90
20459;DHT22;10388;52.314;7.938;2023-03-12T00:18:01;-2.70;99.90
20459;DHT22;10388;52.314;7.938;2023-03-12T00:20:32;-2.80;99.90
20459;DHT22;10388;52.314;7.938;2023-03-12T00:23:02;-2.70;99.90
20459;DHT22;10388;52.314;7.938;2023-03-12T00:25:33;-2.80;99.90
20459;DHT22;10388;52.314;7.938;2023-03-12T00:28:03;-2.80;99.90
20459;DHT22;10388;52.314;7.938;2023-03-12T00:30:34;-2.80;99.90
20459;DHT22;10388;52.314;7.938;2023-03-12T00:33:05;-2.80;99.90
20459;DHT22;10388;52.314;7.938;2023-03-12T00:35:37;-2.80;99.90
20459;DHT22;10388;52.314;7.938;2023-03-12T00:38:07;-2.80;99.90
20459;DHT22;10388;52.314;7.938;2023-03-12T00:40:38;-2.90;99.90
20459;DHT22;10388;52.314;7.938;2023-03-12T00:43:09;-2.90;99.90
20459;DHT22;10388;52.314;7.938;2023-03-12T00:45:39;-2.90;99.90
20459;DHT22;10388;52.314;7.938;2023-03-12T00:48:10;-2.90;99.90
20459;DHT22;10388;52.314;7.938;2023-03-12T00:50:40;-2.90;99.90
20459;DHT22;10388;52.314;7.938;2023-03-12T00:53:11;-2.90;99.90
20459;DHT22;10388;52.314;7.938;2023-03-12T00:55:41;-2.90;99.90
20459;DHT22;10388;52.314;7.938;2023-03-12T00:58:12;-2.90;99.90
20459;DHT22;10388;52.314;7.938;2023-03-12T04:31:55;-2.90;99.90
20459;DHT22;10388;52.314;7.938;2023-03-12T04:34:26;-2.90;99.90
20459;DHT22;10388;52.314;7.938;2023-03-12T04:36:56;-2.90;99.90
20459;DHT22;10388;52.314;7.938;2023-03-12T04:39:27;-2.80;99.90
20459;DHT22;10388;52.314;7.938;2023-03-12T04:41:57;-2.80;99.90
20459;DHT22;10388;52.314;7.938;2023-03-12T04:44:28;-2.80;99.90
20459;DHT22;10388;52.314;7.938;2023-03-12T04:46:58;-2.80;99.90
20459;DHT22;10388;52.314;7.938;2023-03-12T04:49:29;-2.80;99.90
20459;DHT22;10388;52.314;7.938;2023-03-12T04:51:59;-2.70;99.90
20459;DHT22;10388;52.314;7.938;2023-03-12T04:54:30;-2.70;99.90
20459;DHT22;10388;52.314;7.938;2023-03-12T04:57:01;-2.70;99.90
20459;DHT22;10388;52.314;7.938;2023-03-12T04:59:31;-2.70;99.90
20459;DHT22;10388;52.314;7.938;2023-03-12T05:02:02;-2.60;99.90
20459;DHT22;10388;52.314;7.938;2023-03-12T05:04:32;-2.60;99.90
20459;DHT22;10388;52.314;7.938;2023-03-12T05:07:03;-2.60;99.90
20459;DHT22;10388;52.314;7.938;2023-03-12T05:09:33;-2.50;99.90
20459;DHT22;10388;52.314;7.938;2023-03-12T05:12:04;-2.50;99.90
20459;DHT22;10388;52.314;7.938;2023-03-12T05:14:35;-2.50;99.90
20459;DHT22;10388;52.314;7.938;2023-03-12T05:17:06;-2.50;99.90
20459;DHT22;10388;52.314;7.938;2023-03-12T05:19:36;-2.50;99.90
20459;DHT22;10388;52.314;7.938;2023-03-12T05:22:07;-2.50;99.90
20459;DHT22;10388;52.314;7.938;2023-03-12T05:24:37;-2.50;99.90
20459;DHT22;10388;52.314;7.938;2023-03-12T05:27:08;-2.50;99.90
20459;DHT22;10388;52.314;7.938;2023-03-12T05:29:38;-2.50;99.90
20459;DHT22;10388;52.314;7.938;2023-03-12T05:32:09;-2.40;99.90
20459;DHT22;10388;52.314;7.938;2023-03-12T05:34:39;-2.40;99.90
20459;DHT22;10388;52.314;7.938;2023-03-12T05:37:10;-2.40;99.90
20459;DHT22;10388;52.314;7.938;2023-03-12T05:39:41;-2.30;99.90
20459;DHT22;10388;52.314;7.938;2023-03-12T05:42:16;-2.20;99.90
20459;DHT22;10388;52.314;7.938;2023-03-12T05:44:46;-2.20;99.90
20459;DHT22;10388;52.314;7.938;2023-03-12T05:47:17;-2.10;99.90
20459;DHT22;10388;52.314;7.938;2023-03-12T05:49:48;-2.10;99.90
20459;DHT22;10388;52.314;7.938;2023-03-12T05:52:18;-1.90;99.90
20459;DHT22;10388;52.314;7.938;2023-03-12T05:54:51;-1.90;99.90
20459;DHT22;10388;52.314;7.938;2023-03-12T05:57:22;-1.90;99.90
20459;DHT22;10388;52.314;7.938;2023-03-12T05:59:52;-1.80;99.90
20459;DHT22;10388;52.314;7.938;2023-03-12T06:02:23;-1.90;99.90
20459;DHT22;10388;52.314;7.938;2023-03-12T06:04:53;-1.80;99.90
20459;DHT22;10388;52.314;7.938;2023-03-12T06:07:24;-1.70;99.90
20459;DHT22;10388;52.314;7.938;2023-03-12T06:09:54;-1.70;99.90
20459;DHT22;10388;52.314;7.938;2023-03-12T06:12:25;-1.70;99.90
20459;DHT22;10388;52.314;7.938;2023-03-12T06:14:57;-1.60;99.90
20459;DHT22;10388;52.314;7.938;2023-03-12T06:17:28;-1.60;99.90
20459;DHT22;10388;52.314;7.938;2023-03-12T06:19:59;-1.50;99.90
20459;DHT22;10388;52.314;7.938;2023-03-12T06:22:30;-1.50;99.90
20459;DHT22;10388;52.314;7.938;2023-03-12T06:25:00;-1.50;99.90
20459;DHT22;10388;52.314;7.938;2023-03-12T06:27:31;-1.40;99.90
20459;DHT22;10388;52.314;7.938;2023-03-12T06:30:03;-1.30;99.90
20459;DHT22;10388;52.314;7.938;2023-03-12T06:32:34;-1.30;99.90
20459;DHT22;10388;52.314;7.938;2023-03-12T06:35:05;-1.20;99.90
20459;DHT22;10388;52.314;7.938;2023-03-12T06:37:35;-1.20;99.90
20459;DHT22;10388;52.314;7.938;2023-03-12T06:40:06;-1.20;99.90
20459;DHT22;10388;52.314;7.938;2023-03-12T06:42:39;-1.20;99.90
20459;DHT22;10388;52.314;7.938;2023-03-12T06:45:10;-1.10;99.90
20459;DHT22;10388;52.314;7.938;2023-03-12T06:47:40;-1.10;99.90
20459;DHT22;10388;52.314;7.938;2023-03-12T06:50:11;-1.00;99.90
20459;DHT22;10388;52.314;7.938;2023-03-12T06:52:41;-0.90;99.90
20459;DHT22;10388;52.314;7.938;2023-03-12T06:55:12;-0.70;99.90
20459;DHT22;10388;52.314;7.938;2023-03-12T06:57:43;-0.60;99.90
20459;DHT22;10388;52.314;7.938;2023-03-12T07:00:13;-0.50;99.90
20459;DHT22;10388;52.314;7.938;2023-03-12T07:02:44;-0.40;99.90
20459;DHT22;10388;52.314;7.938;2023-03-12T07:05:15;-0.40;99.90
20459;DHT22;10388;52.314;7.938;2023-03-12T07:07:45;-0.40;99.90
20459;DHT22;10388;52.314;7.938;2023-03-12T07:10:16;-0.40;99.90
20459;DHT22;10388;52.314;7.938;2023-03-12T07:12:47;-0.40;99.90
20459;DHT22;10388;52.314;7.938;2023-03-12T07:15:18;-0.30;99.90
20459;DHT22;10388;52.314;7.938;2023-03-12T07:17:49;-0.30;99.90
20459;DHT22;10388;52.314;7.938;2023-03-12T07:20:19;-0.20;99.90
20459;DHT22;10388;52.314;7.938;2023-03-12T07:22:50;-0.10;99.90
20459;DHT22;10388;52.314;7.938;2023-03-12T07:25:20;0.00;99.90
20459;DHT22;10388;52.314;7.938;2023-03-12T07:27:51;0.00;99.90
20459;DHT22;10388;52.314;7.938;2023-03-12T07:30:22;0.20;99.90
20459;DHT22;10388;52.314;7.938;2023-03-12T07:32:52;0.30;99.90
20459;DHT22;10388;52.314;7.938;2023-03-12T07:35:23;0.30;99.90
20459;DHT22;10388;52.314;7.938;2023-03-12T07:37:53;0.50;99.90
20459;DHT22;10388;52.314;7.938;2023-03-12T07:40:24;0.40;99.90
20459;DHT22;10388;52.314;7.938;2023-03-12T07:42:55;0.50;99.90
20459;DHT22;10388;52.314;7.938;2023-03-12T07:45:26;0.60;99.90
20459;DHT22;10388;52.314;7.938;2023-03-12T07:47:56;0.70;99.90
20459;DHT22;10388;52.314;7.938;2023-03-12T07:50:27;0.80;99.90
20459;DHT22;10388;52.314;7.938;2023-03-12T07:52:57;0.90;99.90
20459;DHT22;10388;52.314;7.938;2023-03-12T07:55:28;1.00;99.90
20459;DHT22;10388;52.314;7.938;2023-03-12T07:57:58;1.00;99.90
20459;DHT22;10388;52.314;7.938;2023-03-12T08:00:29;1.10;99.90
20459;DHT22;10388;52.314;7.938;2023-03-12T08:03:00;1.20;99.90
20459;DHT22;10388;52.314;7.938;2023-03-12T08:05:31;1.20;99.90
20459;DHT22;10388;52.314;7.938;2023-03-12T08:08:01;1.20;99.90
20459;DHT22;10388;52.314;7.938;2023-03-12T08:10:32;1.30;99.90
20459;DHT22;10388;52.314;7.938;2023-03-12T08:13:02;1.30;99.90
20459;DHT22;10388;52.314;7.938;2023-03-12T08:15:33;1.30;99.90
20459;DHT22;10388;52.314;7.938;2023-03-12T08:18:04;1.30;99.90
20459;DHT22;10388;52.314;7.938;2023-03-12T08:20:34;1.40;99.90
20459;DHT22;10388;52.314;7.938;2023-03-12T08:23:05;1.40;99.90
20459;DHT22;10388;52.314;7.938;2023-03-12T08:25:36;1.40;99.90
20459;DHT22;10388;52.314;7.938;2023-03-12T08:28:06;1.40;99.90
20459;DHT22;10388;52.314;7.938;2023-03-12T08:30:37;1.50;99.90
20459;DHT22;10388;52.314;7.938;2023-03-12T08:33:07;1.50;99.90
20459;DHT22;10388;52.314;7.938;2023-03-12T08:35:38;1.50;99.90
20459;DHT22;10388;52.314;7.938;2023-03-12T08:38:09;1.60;99.90
20459;DHT22;10388;52.314;7.938;2023-03-12T08:40:39;1.60;99.90
20459;DHT22;10388;52.314;7.938;2023-03-12T08:43:10;1.60;99.90
20459;DHT22;10388;52.314;7.938;2023-03-12T08:45:41;1.70;99.90
20459;DHT22;10388;52.314;7.938;2023-03-12T08:48:11;1.70;99.90
20459;DHT22;10388;52.314;7.938;2023-03-12T08:50:42;1.70;99.90
20459;DHT22;10388;52.314;7.938;2023-03-12T08:53:12;1.70;99.90
20459;DHT22;10388;52.314;7.938;2023-03-12T08:55:43;1.60;99.90
20459;DHT22;10388;52.314;7.938;2023-03-12T08:58:15;1.70;99.90
20459;DHT22;10388;52.314;7.938;2023-03-12T09:00:45;1.70;99.90
20459;DHT22;10388;52.314;7.938;2023-03-12T09:03:16;1.80;99.90
20459;DHT22;10388;52.314;7.938;2023-03-12T09:05:47;1.90;99.90
20459;DHT22;10388;52.314;7.938;2023-03-12T09:08:18;1.90;99.90
20459;DHT22;10388;52.314;7.938;2023-03-12T09:10:49;1.90;99.90
20459;DHT22;10388;52.314;7.938;2023-03-12T09:13:19;1.90;99.90
20459;DHT22;10388;52.314;7.938;2023-03-12T09:15:50;1.90;99.90
20459;DHT22;10388;52.314;7.938;2023-03-12T09:18:20;1.90;99.90
20459;DHT22;10388;52.314;7.938;2023-03-12T09:20:51;1.90;99.90
20459;DHT22;10388;52.314;7.938;2023-03-12T09:23:21;1.80;99.90
20459;DHT22;10388;52.314;7.938;2023-03-12T09:25:53;1.70;99.90
20459;DHT22;10388;52.314;7.938;2023-03-12T09:28:24;1.70;99.90
20459;DHT22;10388;52.314;7.938;2023-03-12T09:30:54;1.80;99.90
20459;DHT22;10388;52.314;7.938;2023-03-12T09:33:25;1.80;99.90
20459;DHT22;10388;52.314;7.938;2023-03-12T09:35:56;1.80;99.90
20459;DHT22;10388;52.314;7.938;2023-03-12T09:38:27;1.90;99.90
20459;DHT22;10388;52.314;7.938;2023-03-12T09:41:03;1.90;99.90
20459;DHT22;10388;52.314;7.938;2023-03-12T09:43:40;1.90;99.90
20459;DHT22;10388;52.314;7.938;2023-03-12T09:46:14;1.90;99.90
20459;DHT22;10388;52.314;7.938;2023-03-12T09:48:47;1.90;99.90
20459;DHT22;10388;52.314;7.938;2023-03-12T09:51:34;1.90;99.90
20459;DHT22;10388;52.314;7.938;2023-03-12T09:54:09;1.90;99.90
20459;DHT22;10388;52.314;7.938;2023-03-12T09:56:42;1.90;99.90
20459;DHT22;10388;52.314;7.938;2023-03-12T09:59:13;1.90;99.90
20459;DHT22;10388;52.314;7.938;2023-03-12T10:01:54;2.00;99.90
20459;DHT22;10388;52.314;7.938;2023-03-12T10:04:49;1.90;99.90
20459;DHT22;10388;52.314;7.938;2023-03-12T10:07:39;1.90;99.90
20459;DHT22;10388;52.314;7.938;2023-03-12T10:10:17;1.90;99.90
20459;DHT22;10388;52.314;7.938;2023-03-12T10:15:50;1.90;99.90
20459;DHT22;10388;52.314;7.938;2023-03-12T10:26:39;1.90;99.90
20459;DHT22;10388;52.314;7.938;2023-03-12T10:29:13;2.00;99.90
20459;DHT22;10388;52.314;7.938;2023-03-12T10:39:47;2.20;99.90
20459;DHT22;10388;52.314;7.938;2023-03-12T10:42:26;2.20;99.90
20459;DHT22;10388;52.314;7.938;2023-03-12T10:47:58;2.20;99.90
20459;DHT22;10388;52.314;7.938;2023-03-12T10:50:32;2.10;99.90
20459;DHT22;10388;52.314;7.938;2023-03-12T10:56:08;2.30;99.90
20459;DHT22;10388;52.314;7.938;2023-03-12T10:58:50;2.40;99.90
20459;DHT22;10388;52.314;7.938;2023-03-12T11:01:27;2.40;99.90
20459;DHT22;10388;52.314;7.938;2023-03-12T11:06:39;2.40;99.90
20459;DHT22;10388;52.314;7.938;2023-03-12T11:09:18;2.50;99.90
20459;DHT22;10388;52.314;7.938;2023-03-12T11:11:49;2.50;99.90
20459;DHT22;10388;52.314;7.938;2023-03-12T11:14:26;2.60;99.90
20459;DHT22;10388;52.314;7.938;2023-03-12T11:17:21;2.70;99.90
20459;DHT22;10388;52.314;7.938;2023-03-12T11:19:52;2.80;99.90
20459;DHT22;10388;52.314;7.938;2023-03-12T11:22:30;2.70;99.90
20459;DHT22;10388;52.314;7.938;2023-03-12T11:25:04;2.70;99.90
20459;DHT22;10388;52.314;7.938;2023-03-12T11:27:45;2.70;99.90
20459;DHT22;10388;52.314;7.938;2023-03-12T11:30:22;2.70;99.90
20459;DHT22;10388;52.314;7.938;2023-03-12T11:32:54;2.70;99.90
20459;DHT22;10388;52.314;7.938;2023-03-12T11:44:18;2.90;99.90
20459;DHT22;10388;52.314;7.938;2023-03-12T11:47:03;2.90;99.90
20459;DHT22;10388;52.314;7.938;2023-03-12T11:56:05;2.90;99.90
20459;DHT22;10388;52.314;7.938;2023-03-12T11:58:44;2.90;99.90
20459;DHT22;10388;52.314;7.938;2023-03-12T12:01:42;2.90;99.90
20459;DHT22;10388;52.314;7.938;2023-03-12T12:16:21;3.10;99.90
20459;DHT22;10388;52.314;7.938;2023-03-12T12:19:16;3.20;99.90
20459;DHT22;10388;52.314;7.938;2023-03-12T12:24:44;3.30;99.90
20459;DHT22;10388;52.314;7.938;2023-03-12T12:27:21;3.30;99.90
20459;DHT22;10388;52.314;7.938;2023-03-12T12:33:13;3.40;99.90
20459;DHT22;10388;52.314;7.938;2023-03-12T12:35:45;3.40;99.90
20459;DHT22;10388;52.314;7.938;2023-03-12T12:38:35;3.40;99.90
20459;DHT22;10388;52.314;7.938;2023-03-12T12:41:18;3.60;99.90
20459;DHT22;10388;52.314;7.938;2023-03-12T12:43:56;3.60;99.90
20459;DHT22;10388;52.314;7.938;2023-03-12T12:47:04;3.60;99.90
20459;DHT22;10388;52.314;7.938;2023-03-12T12:49:48;3.70;99.90
20459;DHT22;10388;52.314;7.938;2023-03-12T12:52:20;3.80;99.90
20459;DHT22;10388;52.314;7.938;2023-03-12T13:00:22;3.90;99.90
20459;DHT22;10388;52.314;7.938;2023-03-12T13:02:56;4.00;99.90
20459;DHT22;10388;52.314;7.938;2023-03-12T13:08:07;4.00;99.90
20459;DHT22;10388;52.314;7.938;2023-03-12T13:10:41;4.10;99.90
20459;DHT22;10388;52.314;7.938;2023-03-12T13:13:19;4.20;99.90
20459;DHT22;10388;52.314;7.938;2023-03-12T13:15:50;4.20;99.90
20459;DHT22;10388;52.314;7.938;2023-03-12T13:18:26;4.30;99.90
20459;DHT22;10388;52.314;7.938;2023-03-12T13:21:06;4.40;99.90
20459;DHT22;10388;52.314;7.938;2023-03-12T13:32:08;4.70;99.90
20459;DHT22;10388;52.314;7.938;2023-03-12T13:34:44;4.80;99.90
20459;DHT22;10388;52.314;7.938;2023-03-12T13:46:00;4.90;99.90
20459;DHT22;10388;52.314;7.938;2023-03-12T13:48:33;4.90;99.90
20459;DHT22;10388;52.314;7.938;2023-03-12T13:51:13;5.00;99.90
20459;DHT22;10388;52.314;7.938;2023-03-12T13:54:00;5.00;99.90
20459;DHT22;10388;52.314;7.938;2023-03-12T13:56:32;5.00;99.90
20459;DHT22;10388;52.314;7.938;2023-03-12T13:59:07;5.00;99.90
20459;DHT22;10388;52.314;7.938;2023-03-12T14:01:48;5.10;99.90
20459;DHT22;10388;52.314;7.938;2023-03-12T14:04:26;5.10;99.90
20459;DHT22;10388;52.314;7.938;2023-03-12T14:13:14;5.20;99.90
20459;DHT22;10388;52.314;7.938;2023-03-12T14:15:58;5.30;99.90
20459;DHT22;10388;52.314;7.938;2023-03-12T14:18:34;5.30;99.90
20459;DHT22;10388;52.314;7.938;2023-03-12T14:21:08;5.40;99.90
20459;DHT22;10388;52.314;7.938;2023-03-12T14:23:50;5.40;99.90
20459;DHT22;10388;52.314;7.938;2023-03-12T14:26:28;5.50;99.90
20459;DHT22;10388;52.314;7.938;2023-03-12T14:29:20;5.50;99.90
20459;DHT22;10388;52.314;7.938;2023-03-12T14:31:56;5.50;99.90
20459;DHT22;10388;52.314;7.938;2023-03-12T14:34:30;5.50;99.90
20459;DHT22;10388;52.314;7.938;2023-03-12T14:37:24;5.60;99.90
20459;DHT22;10388;52.314;7.938;2023-03-12T14:40:52;5.60;99.90
20459;DHT22;10388;52.314;7.938;2023-03-12T14:42:59;5.60;99.90
20459;DHT22;10388;52.314;7.938;2023-03-12T14:45:29;5.70;99.90
20459;DHT22;10388;52.314;7.938;2023-03-12T14:48:00;5.80;99.90
20459;DHT22;10388;52.314;7.938;2023-03-12T14:50:39;5.80;99.90
20459;DHT22;10388;52.314;7.938;2023-03-12T14:53:26;5.90;99.90
20459;DHT22;10388;52.314;7.938;2023-03-12T14:56:11;6.00;99.90
20459;DHT22;10388;52.314;7.938;2023-03-12T14:58:47;6.00;99.90
20459;DHT22;10388;52.314;7.938;2023-03-12T15:01:25;6.10;99.90
20459;DHT22;10388;52.314;7.938;2023-03-12T15:04:01;6.10;99.90
20459;DHT22;10388;52.314;7.938;2023-03-12T15:06:56;6.10;99.90
20459;DHT22;10388;52.314;7.938;2023-03-12T15:09:29;6.10;99.90
20459;DHT22;10388;52.314;7.938;2023-03-12T15:12:06;6.10;99.90
20459;DHT22;10388;52.314;7.938;2023-03-12T15:14:39;6.10;99.90
20459;DHT22;10388;52.314;7.938;2023-03-12T15:17:19;6.10;99.90
20459;DHT22;10388;52.314;7.938;2023-03-12T15:19:51;6.10;99.90
20459;DHT22;10388;52.314;7.938;2023-03-12T15:22:25;6.20;99.90
20459;DHT22;10388;52.314;7.938;2023-03-12T15:25:01;6.20;99.90
20459;DHT22;10388;52.314;7.938;2023-03-12T15:27:44;6.30;99.90
20459;DHT22;10388;52.314;7.938;2023-03-12T15:30:24;6.30;99.90
20459;DHT22;10388;52.314;7.938;2023-03-12T15:33:05;6.40;99.90
20459;DHT22;10388;52.314;7.938;2023-03-12T15:35:38;6.40;99.90
20459;DHT22;10388;52.314;7.938;2023-03-12T15:38:14;6.40;99.90
20459;DHT22;10388;52.314;7.938;2023-03-12T15:40:49;6.40;99.90
20459;DHT22;10388;52.314;7.938;2023-03-12T15:43:22;6.50;99.90
20459;DHT22;10388;52.314;7.938;2023-03-12T15:46:02;6.50;99.90
20459;DHT22;10388;52.314;7.938;2023-03-12T15:48:36;6.60;99.90
20459;DHT22;10388;52.314;7.938;2023-03-12T15:51:13;6.70;99.90
20459;DHT22;10388;52.314;7.938;2023-03-12T15:53:43;6.80;99.90
20459;DHT22;10388;52.314;7.938;2023-03-12T15:58:46;6.90;99.90
20459;DHT22;10388;52.314;7.938;2023-03-12T16:01:27;6.90;99.90
20459;DHT22;10388;52.314;7.938;2023-03-12T16:03:58;7.00;99.90
20459;DHT22;10388;52.314;7.938;2023-03-12T16:06:28;7.00;99.90
20459;DHT22;10388;52.314;7.938;2023-03-12T16:09:01;7.00;99.90
20459;DHT22;10388;52.314;7.938;2023-03-12T16:11:35;7.10;99.90
20459;DHT22;10388;52.314;7.938;2023-03-12T16:14:22;7.10;99.90
20459;DHT22;10388;52.314;7.938;2023-03-12T16:16:54;7.00;99.90
20459;DHT22;10388;52.314;7.938;2023-03-12T16:19:28;7.00;99.90
20459;DHT22;10388;52.314;7.938;2023-03-12T16:21:59;7.10;99.90
20459;DHT22;10388;52.314;7.938;2023-03-12T16:24:29;7.10;99.90
20459;DHT22;10388;52.314;7.938;2023-03-12T16:27:00;7.10;99.90
20459;DHT22;10388;52.314;7.938;2023-03-12T16:29:36;7.10;99.90
20459;DHT22;10388;52.314;7.938;2023-03-12T16:32:10;7.20;99.90
20459;DHT22;10388;52.314;7.938;2023-03-12T16:34:42;7.20;99.90
20459;DHT22;10388;52.314;7.938;2023-03-12T16:37:14;7.20;99.90
20459;DHT22;10388;52.314;7.938;2023-03-12T16:39:44;7.20;99.90
20459;DHT22;10388;52.314;7.938;2023-03-12T16:42:17;7.20;99.90
20459;DHT22;10388;52.314;7.938;2023-03-12T16:44:48;7.30;99.90
20459;DHT22;10388;52.314;7.938;2023-03-12T16:47:18;7.30;99.90
20459;DHT22;10388;52.314;7.938;2023-03-12T16:49:49;7.40;99.90
20459;DHT22;10388;52.314;7.938;2023-03-12T16:52:22;7.40;99.90
20459;DHT22;10388;52.314;7.938;2023-03-12T16:54:53;7.40;99.90
20459;DHT22;10388;52.314;7.938;2023-03-12T17:00:03;7.40;99.90
20459;DHT22;10388;52.314;7.938;2023-03-12T17:02:37;7.40;99.90
20459;DHT22;10388;52.314;7.938;2023-03-12T17:05:08;7.30;99.90
20459;DHT22;10388;52.314;7.938;2023-03-12T17:07:39;7.30;99.90
20459;DHT22;10388;52.314;7.938;2023-03-12T17:10:10;7.30;99.90
20459;DHT22;10388;52.314;7.938;2023-03-12T17:12:41;7.30;99.90
20459;DHT22;10388;52.314;7.938;2023-03-12T17:15:25;7.30;99.90
20459;DHT22;10388;52.314;7.938;2023-03-12T17:17:55;7.30;99.90
20459;DHT22;10388;52.314;7.938;2023-03-12T17:20:29;7.30;99.90
20459;DHT22;10388;52.314;7.938;2023-03-12T17:23:05;7.30;99.90
20459;DHT22;10388;52.314;7.938;2023-03-12T17:25:38;7.30;99.90
20459;DHT22;10388;52.314;7.938;2023-03-12T17:28:10;7.30;99.90
20459;DHT22;10388;52.314;7.938;2023-03-12T17:30:41;7.30;99.90
20459;DHT22;10388;52.314;7.938;2023-03-12T17:33:14;7.30;99.90
20459;DHT22;10388;52.314;7.938;2023-03-12T17:35:44;7.30;99.90
20459;DHT22;10388;52.314;7.938;2023-03-12T17:38:15;7.30;99.90
20459;DHT22;10388;52.314;7.938;2023-03-12T17:40:45;7.30;99.90
20459;DHT22;10388;52.314;7.938;2023-03-12T17:43:16;7.30;99.90
20459;DHT22;10388;52.314;7.938;2023-03-12T17:45:47;7.30;99.90
20459;DHT22;10388;52.314;7.938;2023-03-12T17:48:18;7.30;99.90
20459;DHT22;10388;52.314;7.938;2023-03-12T17:50:49;7.30;99.90
20459;DHT22;10388;52.314;7.938;2023-03-12T17:53:19;7.20;99.90
20459;DHT22;10388;52.314;7.938;2023-03-12T17:55:50;7.20;99.90
20459;DHT22;10388;52.314;7.938;2023-03-12T17:58:20;7.20;99.90
20459;DHT22;10388;52.314;7.938;2023-03-12T18:00:51;7.20;99.90
20459;DHT22;10388;52.314;7.938;2023-03-12T18:03:21;7.20;99.90
20459;DHT22;10388;52.314;7.938;2023-03-12T18:05:52;7.20;99.90
20459;DHT22;10388;52.314;7.938;2023-03-12T18:08:22;7.20;99.90
20459;DHT22;10388;52.314;7.938;2023-03-12T18:10:53;7.20;99.90
20459;DHT22;10388;52.314;7.938;2023-03-12T18:13:24;7.10;99.90
20459;DHT22;10388;52.314;7.938;2023-03-12T18:15:56;7.20;99.90
20459;DHT22;10388;52.314;7.938;2023-03-12T18:18:27;7.30;99.90
20459;DHT22;10388;52.314;7.938;2023-03-12T18:20:58;7.30;99.90
20459;DHT22;10388;52.314;7.938;2023-03-12T18:23:28;7.30;99.90
20459;DHT22;10388;52.314;7.938;2023-03-12T18:25:59;7.40;99.90
20459;DHT22;10388;52.314;7.938;2023-03-12T18:28:29;7.40;99.90
20459;DHT22;10388;52.314;7.938;2023-03-12T18:31:00;7.30;99.90
20459;DHT22;10388;52.314;7.938;2023-03-12T18:33:30;7.40;99.90
20459;DHT22;10388;52.314;7.938;2023-03-12T18:36:01;7.40;99.90
20459;DHT22;10388;52.314;7.938;2023-03-12T18:38:32;7.40;99.90
20459;DHT22;10388;52.314;7.938;2023-03-12T18:41:09;7.40;99.90
20459;DHT22;10388;52.314;7.938;2023-03-12T18:43:41;7.40;99.90
20459;DHT22;10388;52.314;7.938;2023-03-12T18:46:12;7.50;99.90
20459;DHT22;10388;52.314;7.938;2023-03-12T18:48:42;7.50;99.90
20459;DHT22;10388;52.314;7.938;2023-03-12T18:51:13;7.50;99.90
20459;DHT22;10388;52.314;7.938;2023-03-12T18:53:43;7.60;99.90
20459;DHT22;10388;52.314;7.938;2023-03-12T18:56:17;7.70;99.90
20459;DHT22;10388;52.314;7.938;2023-03-12T18:58:47;7.70;99.90
20459;DHT22;10388;52.314;7.938;2023-03-12T19:01:18;7.60;99.90
20459;DHT22;10388;52.314;7.938;2023-03-12T19:03:49;7.70;99.90
20459;DHT22;10388;52.314;7.938;2023-03-12T19:06:19;7.70;99.90
20459;DHT22;10388;52.314;7.938;2023-03-12T19:08:50;7.70;99.90
20459;DHT22;10388;52.314;7.938;2023-03-12T19:11:20;7.60;99.90
20459;DHT22;10388;52.314;7.938;2023-03-12T19:13:51;7.50;99.90
20459;DHT22;10388;52.314;7.938;2023-03-12T19:16:22;7.50;99.90
20459;DHT22;10388;52.314;7.938;2023-03-12T19:18:52;7.60;99.90
20459;DHT22;10388;52.314;7.938;2023-03-12T19:21:23;7.60;99.90
20459;DHT22;10388;52.314;7.938;2023-03-12T19:23:54;7.50;99.90
20459;DHT22;10388;52.314;7.938;2023-03-12T19:26:24;7.50;99.90
20459;DHT22;10388;52.314;7.938;2023-03-12T19:28:55;7.50;99.90
20459;DHT22;10388;52.314;7.938;2023-03-12T19:31:25;7.50;99.90
20459;DHT22;10388;52.314;7.938;2023-03-12T19:33:56;7.40;99.90
20459;DHT22;10388;52.314;7.938;2023-03-12T19:36:26;7.40;99.90
20459;DHT22;10388;52.314;7.938;2023-03-12T19:38:57;7.40;99.90
20459;DHT22;10388;52.314;7.938;2023-03-12T19:41:27;7.40;99.90
20459;DHT22;10388;52.314;7.938;2023-03-12T19:43:58;7.30;99.90
20459;DHT22;10388;52.314;7.938;2023-03-12T19:46:28;7.30;99.90
20459;DHT22;10388;52.314;7.938;2023-03-12T19:49:00;7.40;99.90
20459;DHT22;10388;52.314;7.938;2023-03-12T19:51:31;7.30;99.90
20459;DHT22;10388;52.314;7.938;2023-03-12T19:54:01;7.30;99.90
20459;DHT22;10388;52.314;7.938;2023-03-12T19:56:32;7.30;99.90
20459;DHT22;10388;52.314;7.938;2023-03-12T19:59:02;7.30;99.90
20459;DHT22;10388;52.314;7.938;2023-03-12T20:01:33;7.30;99.90
20459;DHT22;10388;52.314;7.938;2023-03-12T20:04:04;7.20;99.90
20459;DHT22;10388;52.314;7.938;2023-03-12T20:06:37;7.20;99.90
20459;DHT22;10388;52.314;7.938;2023-03-12T20:09:08;7.20;99.90
20459;DHT22;10388;52.314;7.938;2023-03-12T20:11:39;7.20;99.90
20459;DHT22;10388;52.314;7.938;2023-03-12T20:14:09;7.20;99.90
20459;DHT22;10388;52.314;7.938;2023-03-12T20:16:40;7.20;99.90
20459;DHT22;10388;52.314;7.938;2023-03-12T20:19:11;7.30;99.90
20459;DHT22;10388;52.314;7.938;2023-03-12T20:21:41;7.20;99.90
20459;DHT22;10388;52.314;7.938;2023-03-12T20:24:13;7.20;99.90
20459;DHT22;10388;52.314;7.938;2023-03-12T20:26:43;7.20;99.90
20459;DHT22;10388;52.314;7.938;2023-03-12T20:29:14;7.30;99.90
20459;DHT22;10388;52.314;7.938;2023-03-12T20:31:45;7.30;99.90
20459;DHT22;10388;52.314;7.938;2023-03-12T20:34:15;7.30;99.90
20459;DHT22;10388;52.314;7.938;2023-03-12T20:36:46;7.30;99.90
20459;DHT22;10388;52.314;7.938;2023-03-12T20:39:17;7.30;99.90
20459;DHT22;10388;52.314;7.938;2023-03-12T20:41:48;7.30;99.90
20459;DHT22;10388;52.314;7.938;2023-03-12T20:44:18;7.40;99.90
20459;DHT22;10388;52.314;7.938;2023-03-12T20:46:49;7.40;99.90
20459;DHT22;10388;52.314;7.938;2023-03-12T20:49:19;7.50;99.90
20459;DHT22;10388;52.314;7.938;2023-03-12T20:51:50;7.50;99.90
20459;DHT22;10388;52.314;7.938;2023-03-12T20:54:20;7.40;99.90
20459;DHT22;10388;52.314;7.938;2023-03-12T20:56:51;7.40;99.90
20459;DHT22;10388;52.314;7.938;2023-03-12T20:59:22;7.50;99.90
20459;DHT22;10388;52.314;7.938;2023-03-12T21:01:52;7.50;99.90
20459;DHT22;10388;52.314;7.938;2023-03-12T21:04:23;7.50;99.90
20459;DHT22;10388;52.314;7.938;2023-03-12T21:06:53;7.50;99.90
20459;DHT22;10388;52.314;7.938;2023-03-12T21:09:25;7.60;99.90
20459;DHT22;10388;52.314;7.938;2023-03-12T21:11:55;7.60;99.90
20459;DHT22;10388;52.314;7.938;2023-03-12T21:14:26;7.60;99.90
20459;DHT22;10388;52.314;7.938;2023-03-12T21:16:57;7.60;99.90
20459;DHT22;10388;52.314;7.938;2023-03-12T21:19:30;7.60;99.90
20459;DHT22;10388;52.314;7.938;2023-03-12T21:22:00;7.60;99.90
20459;DHT22;10388;52.314;7.938;2023-03-12T21:24:32;7.70;99.90
20459;DHT22;10388;52.314;7.938;2023-03-12T21:27:03;7.70;99.90